createdAt,value
2017-08-05T09:33:34.357Z,25.60
2017-08-05T11:52:31.567Z,39.10
2017-08-05T11:54:59.189Z,44.20
2017-08-05T11:57:27.517Z,44.50
2017-08-05T11:59:55.046Z,44.40
2017-08-05T12:02:22.568Z,44.00
2017-08-05T12:04:51.000Z,43.20
2017-08-05T12:07:18.576Z,43.20
2017-08-05T12:09:46.179Z,42.90
2017-08-05T12:12:14.510Z,43.90
2017-08-05T12:14:42.160Z,43.90
2017-08-05T12:17:09.686Z,40.80
2017-08-05T12:19:38.098Z,42.00
2017-08-05T12:22:05.626Z,42.00
2017-08-05T12:24:33.162Z,42.00
2017-08-05T12:27:01.809Z,43.60
2017-08-05T12:29:29.341Z,43.60
2017-08-05T12:31:56.870Z,43.90
2017-08-05T12:34:25.203Z,45.90
2017-08-05T12:36:52.726Z,45.80
2017-08-05T12:39:20.250Z,46.80
2017-08-05T15:15:40.216Z,43.00
2017-08-05T15:18:07.754Z,41.90
2017-08-05T15:20:35.279Z,41.00
2017-08-05T15:23:03.572Z,39.20
2017-08-05T15:25:31.887Z,38.10
2017-08-05T15:27:59.410Z,38.00
2017-08-05T15:30:27.720Z,36.00
2017-08-05T15:32:55.278Z,36.00
2017-08-05T15:35:22.821Z,34.80
2017-08-05T15:37:50.350Z,34.30
2017-08-05T15:40:18.674Z,34.20
2017-08-05T15:42:46.193Z,34.10
2017-08-05T15:45:14.482Z,34.10
2017-08-05T15:47:42.025Z,34.00
2017-08-05T15:50:10.313Z,33.30
2017-08-05T15:52:37.835Z,33.30
2017-08-05T15:55:05.373Z,33.20
2017-08-05T15:57:32.892Z,33.20
2017-08-05T16:00:01.207Z,33.20
2017-08-05T16:02:28.765Z,33.20
2017-08-05T16:04:56.349Z,33.10
2017-08-05T16:07:23.871Z,33.40
2017-08-05T16:09:51.408Z,33.70
2017-08-05T16:12:18.925Z,33.90
2017-08-05T16:14:46.448Z,33.90
2017-08-05T16:17:13.983Z,34.20
2017-08-05T16:19:41.500Z,34.70
2017-08-05T16:22:09.022Z,35.00
2017-08-05T16:24:36.562Z,35.10
2017-08-05T16:27:04.086Z,34.50
2017-08-05T16:29:31.634Z,33.90
2017-08-05T16:31:59.200Z,33.20
2017-08-05T16:34:27.506Z,31.90
2017-08-05T16:36:55.798Z,31.50
2017-08-05T16:39:23.333Z,31.40
2017-08-05T16:41:51.622Z,31.00
2017-08-05T16:44:19.906Z,30.90
2017-08-05T16:46:47.453Z,30.80
2017-08-05T16:49:15.795Z,30.60
2017-08-05T16:51:43.325Z,30.60
2017-08-05T16:54:10.861Z,30.50
2017-08-05T16:56:38.383Z,30.40
2017-08-05T16:59:05.909Z,30.30
2017-08-05T17:01:33.446Z,30.20
2017-08-05T17:04:00.973Z,30.10
2017-08-05T17:06:28.582Z,30.10
2017-08-05T17:08:56.123Z,30.10
2017-08-05T17:11:23.640Z,30.00
2017-08-05T17:13:51.159Z,30.00
2017-08-05T17:16:18.692Z,30.00
2017-08-05T17:18:46.205Z,29.80
2017-08-05T17:21:13.726Z,29.80
2017-08-05T17:23:41.270Z,29.70
2017-08-05T17:26:08.791Z,29.60
2017-08-05T17:28:36.410Z,29.50
2017-08-05T17:31:03.970Z,29.40
2017-08-05T17:33:32.432Z,29.30
2017-08-05T17:35:59.962Z,29.10
2017-08-05T17:38:28.286Z,29.00
2017-08-05T17:40:55.937Z,29.00
2017-08-05T17:43:23.462Z,29.00
2017-08-05T17:45:51.001Z,28.90
2017-08-05T17:48:18.524Z,28.90
2017-08-05T17:50:46.049Z,28.80
2017-08-05T17:53:14.363Z,28.80
2017-08-05T17:55:41.890Z,28.80
2017-08-05T17:58:09.422Z,28.90
2017-08-05T18:00:36.960Z,28.90
2017-08-05T18:03:04.477Z,28.80
2017-08-05T18:05:32.004Z,28.60
2017-08-05T18:07:59.545Z,28.40
2017-08-05T18:10:27.071Z,28.30
2017-08-05T18:12:54.595Z,28.10
2017-08-05T18:15:22.146Z,27.90
2017-08-05T18:17:49.665Z,27.80
2017-08-05T18:20:17.186Z,27.60
2017-08-05T18:22:44.733Z,27.50
2017-08-05T18:25:13.040Z,27.30
2017-08-05T18:27:40.589Z,27.30
2017-08-05T18:30:08.126Z,27.20
2017-08-05T18:32:35.651Z,27.10
2017-08-05T18:35:03.170Z,27.00
2017-08-05T18:37:30.730Z,26.90
2017-08-05T18:39:58.249Z,26.80
2017-08-05T18:42:26.570Z,26.60
2017-08-05T18:44:54.162Z,26.60
2017-08-05T18:47:21.685Z,26.50
2017-08-05T18:49:49.227Z,26.50
2017-08-05T18:52:16.770Z,26.40
2017-08-05T18:54:45.092Z,26.30
2017-08-05T18:57:12.619Z,26.30
2017-08-05T18:59:40.170Z,26.30
2017-08-05T19:02:07.697Z,26.20
2017-08-05T19:04:35.229Z,26.10
2017-08-05T19:07:02.783Z,26.00
2017-08-05T19:09:30.297Z,26.00
2017-08-05T19:11:58.623Z,26.00
2017-08-05T19:14:26.153Z,26.00
2017-08-05T19:16:53.685Z,26.00
2017-08-05T19:19:21.216Z,26.00
2017-08-05T19:21:48.775Z,25.90
2017-08-05T19:24:16.296Z,25.90
2017-08-05T19:26:43.821Z,25.80
2017-08-05T19:29:11.358Z,25.80
2017-08-05T19:31:38.884Z,25.70
2017-08-05T19:34:06.451Z,25.60
2017-08-05T19:36:34.009Z,25.50
2017-08-05T19:39:01.542Z,25.50
2017-08-05T19:41:29.072Z,25.30
2017-08-05T19:43:56.606Z,25.30
2017-08-05T19:46:24.977Z,25.20
2017-08-05T19:48:52.562Z,25.10
2017-08-05T19:51:20.102Z,25.00
2017-08-05T19:53:47.634Z,25.00
2017-08-05T19:56:15.157Z,24.80
2017-08-05T19:58:43.466Z,24.60
2017-08-05T20:01:10.998Z,24.60
2017-08-05T20:03:39.289Z,24.30
2017-08-05T20:06:06.826Z,24.30
2017-08-05T20:08:34.353Z,24.30
2017-08-05T20:11:01.869Z,24.10
2017-08-05T20:13:29.417Z,24.00
2017-08-05T20:15:56.935Z,24.00
2017-08-05T20:18:24.453Z,23.90
2017-08-05T20:20:52.004Z,23.90
2017-08-05T20:23:19.529Z,23.90
2017-08-05T20:25:47.054Z,23.80
2017-08-05T20:28:14.601Z,23.80
2017-08-05T20:30:42.122Z,23.80
2017-08-05T20:33:10.402Z,23.70
2017-08-05T20:35:38.719Z,23.60
2017-08-05T20:38:06.238Z,23.60
2017-08-05T20:40:34.528Z,23.50
2017-08-05T20:43:02.070Z,23.50
2017-08-05T20:45:30.482Z,23.40
2017-08-05T20:47:58.002Z,23.40
2017-08-05T20:50:26.687Z,23.30
2017-08-05T20:52:54.978Z,23.30
2017-08-05T20:55:23.264Z,23.20
2017-08-05T20:57:50.802Z,23.20
2017-08-05T21:00:19.089Z,23.10
2017-08-05T21:02:47.378Z,23.10
2017-08-05T21:05:14.921Z,23.00
2017-08-05T21:07:42.443Z,23.00
2017-08-05T21:10:09.966Z,23.00
2017-08-05T21:12:37.521Z,23.00
2017-08-05T21:15:05.041Z,23.00
2017-08-05T21:17:32.561Z,22.90
2017-08-05T21:20:00.213Z,22.90
2017-08-05T21:22:27.734Z,22.90
2017-08-05T21:24:56.021Z,22.80
2017-08-05T21:27:23.562Z,22.80
2017-08-05T21:29:51.853Z,22.80
2017-08-05T21:32:20.143Z,22.80
2017-08-05T21:34:47.686Z,22.80
2017-08-05T21:37:15.968Z,22.80
2017-08-05T21:39:43.488Z,22.70
2017-08-05T21:42:11.030Z,22.80
2017-08-05T21:44:38.552Z,22.80
2017-08-05T21:47:06.069Z,22.80
2017-08-05T21:49:33.610Z,22.70
2017-08-05T21:52:01.192Z,22.60
2017-08-05T21:54:29.498Z,22.50
2017-08-05T21:56:57.040Z,22.50
2017-08-05T21:59:25.346Z,22.40
2017-08-05T22:01:52.869Z,22.40
2017-08-05T22:04:20.417Z,22.40
2017-08-05T22:06:47.942Z,22.30
2017-08-05T22:09:15.464Z,22.20
2017-08-05T22:11:43.777Z,22.20
2017-08-05T22:14:11.302Z,22.10
2017-08-05T22:16:39.585Z,22.10
2017-08-05T22:19:07.130Z,22.10
2017-08-05T22:21:35.421Z,22.00
2017-08-05T22:24:02.933Z,22.00
2017-08-05T22:26:30.466Z,22.00
2017-08-05T22:28:57.984Z,22.00
2017-08-05T22:31:26.265Z,21.90
2017-08-05T22:33:54.569Z,21.80
2017-08-05T22:36:22.093Z,21.80
2017-08-05T22:38:50.400Z,21.60
2017-08-05T22:41:17.941Z,21.60
2017-08-05T22:43:45.457Z,21.50
2017-08-05T22:46:12.974Z,21.40
2017-08-05T22:48:40.523Z,21.30
2017-08-05T22:51:08.040Z,21.20
2017-08-05T22:53:35.561Z,21.20
2017-08-05T22:56:03.110Z,21.20
2017-08-05T22:58:30.630Z,21.30
2017-08-05T23:00:58.150Z,21.30
2017-08-05T23:03:25.694Z,21.40
2017-08-05T23:05:53.216Z,21.40
2017-08-05T23:08:21.501Z,21.30
2017-08-05T23:10:49.806Z,21.30
2017-08-05T23:13:17.349Z,21.30
2017-08-05T23:15:44.878Z,21.40
2017-08-05T23:18:12.411Z,21.40
2017-08-05T23:20:39.950Z,21.30
2017-08-05T23:23:07.500Z,21.30
2017-08-05T23:25:35.106Z,21.30
2017-08-05T23:28:02.641Z,21.30
2017-08-05T23:30:30.167Z,21.20
2017-08-05T23:32:57.706Z,21.20
2017-08-05T23:35:25.993Z,21.20
2017-08-05T23:37:54.299Z,21.20
2017-08-05T23:40:21.861Z,21.20
2017-08-05T23:42:49.377Z,21.10
2017-08-05T23:45:17.667Z,21.10
2017-08-05T23:47:45.213Z,21.00
2017-08-05T23:50:13.513Z,20.90
2017-08-05T23:52:41.045Z,20.90
2017-08-05T23:55:08.620Z,20.90
2017-08-05T23:57:36.162Z,20.90
